AGROMETEOROLOŠKI PORTAL

vinorodna pokrajina

Temelj dobrega kmetovanja

Pregled podatkov za lokacijo MARINČA VAS - ARSO, meteorološka postaja 160

Pregled senzorjev na lokaciji

ID Ime Zadnja
vrednost
Datum in čas
meritve
(lokalni čas)
Tip
senzorja
5966 Padavine (mm) 0 mm 25.9.2022 21:30 ARSO
5968 Relativna zračna vlaga (2 m) (% RH) 98 % RH 25.9.2022 21:30 ARSO
5967 Temperatura (2 m) (°C) 12,6 °C 25.9.2022 21:30 ARSO

Pregled podatkov zadnjih 24 ur

Zap.
št.
Datum in čas
(lokalni čas)
MARINČA VAS - ARSO
Padavine Relativna
zračna
vlaga
(2
m)
Temperatura
(2
m)
1 25.9.2022 21:30 0 97,7 12,6
2 25.9.2022 21:00 0 98 12,6
3 25.9.2022 20:30 0 97,7 12,6
4 25.9.2022 20:00 0 97 12,6
5 25.9.2022 19:30 0 97 12,6
6 25.9.2022 19:00 0 96,7 12,9
7 25.9.2022 18:30 0 96 12,9
8 25.9.2022 18:00 2,5 95,3 12,9
9 25.9.2022 17:30 1 94 13,2
10 25.9.2022 17:00 0 94 13,4
11 25.9.2022 16:30 0,5 95,3 13,3
12 25.9.2022 16:00 0,4 95 13,3
13 25.9.2022 15:30 0,4 95,3 13,4
14 25.9.2022 15:00 0,6 95 13,3
15 25.9.2022 14:30 2 95,7 13,4
16 25.9.2022 14:00 0,3 94,3 13,6
17 25.9.2022 13:30 0,4 92 13,7
18 25.9.2022 13:00 0,4 92,3 13,6
19 25.9.2022 12:30 0,6 88,7 13,7
20 25.9.2022 12:00 0,3 87,3 13,6
21 25.9.2022 11:30 0 88,7 13,2
22 25.9.2022 11:00 0,1 88 13,1
23 25.9.2022 10:30 0 90 12,8
24 25.9.2022 10:00 0 92,3 12,3
25 25.9.2022 09:30 0,1 94,7 11,9
26 25.9.2022 09:00 0 96,7 11,9
27 25.9.2022 08:30 0 97 11,8
28 25.9.2022 08:00 0 98 11,7
29 25.9.2022 07:30 0 98 11,7
30 25.9.2022 07:00 0,1 98 11,6
31 25.9.2022 06:30 0,1 98 11,7
32 25.9.2022 06:00 0,5 98 11,8
33 25.9.2022 05:30 0 98 11,8
34 25.9.2022 05:00 0,2 98 11,8
35 25.9.2022 04:30 0,7 98 11,8
36 25.9.2022 04:00 0,2 98 11,7
37 25.9.2022 03:30 0,1 98 11,8
38 25.9.2022 03:00 0,1 98 11,9
39 25.9.2022 02:30 0 98 12
40 25.9.2022 02:00 0 98 12,1
41 25.9.2022 01:30 0 97,7 12,1
42 25.9.2022 01:00 0 97 11,9
43 25.9.2022 00:30 0 97 12
44 25.9.2022 00:00 0 96,7 12,2
45 24.9.2022 23:30 0 96 12,3
46 24.9.2022 23:00 0 96 12,7